Welaka, Florida
Current Conditions -  °F | °C
As of 4:15 PM on Saturday 22 Nov 2014 (Local Time) from K28J Reporting Station
Overcast Overcast  
Wind Chill: 66°   Ceiling: 6000
Heat Index: 66°   Visibility: 10mi
Dew Point: 66°   Wind: 10mph
Humidity: 100%   Direction: 100°E
Pressure: 30.2"   Gusts: NA
Location:  29.48°N, 81.67°W
Report Text: K28J 222115Z AUTO 10009KT 10SM FEW034 OVC060 19/19 A3020 RMK AO2
Loading
Personal Weather Stations






























Interactive Weather Map New forecast layout! Learn more

10-Day Weather Forecast

Advertisements
Track Severe Weather on mobile